createdAt,value
2017-12-29T00:02:24.452Z,11.70
2017-12-29T00:04:50.874Z,5.70
2017-12-29T00:07:17.296Z,10.43
2017-12-29T00:09:43.702Z,6.07
2017-12-29T00:12:10.071Z,5.33
2017-12-29T00:14:36.542Z,8.83
2017-12-29T00:17:02.973Z,3.23
2017-12-29T00:19:29.416Z,10.10
2017-12-29T00:21:55.993Z,6.37
2017-12-29T00:24:23.682Z,3.43
2017-12-29T00:26:51.199Z,7.63
2017-12-29T00:29:17.720Z,2.90
2017-12-29T00:31:44.274Z,5.37
2017-12-29T00:34:10.654Z,6.40
2017-12-29T00:36:37.376Z,4.43
2017-12-29T00:39:04.140Z,6.40
2017-12-29T00:41:30.557Z,8.80
2017-12-29T00:43:56.951Z,7.33
2017-12-29T00:46:23.465Z,4.83
2017-12-29T00:48:49.871Z,6.40
2017-12-29T00:51:16.569Z,17.07
2017-12-29T00:53:43.063Z,7.53
2017-12-29T00:56:09.442Z,8.03
2017-12-29T00:58:35.838Z,8.40
2017-12-29T01:01:02.258Z,9.03
2017-12-29T01:03:28.702Z,6.33
2017-12-29T01:05:56.474Z,9.70
2017-12-29T01:08:23.726Z,5.10
2017-12-29T01:10:50.329Z,8.47
2017-12-29T01:13:16.965Z,11.90
2017-12-29T01:15:43.608Z,15.13
2017-12-29T01:18:10.168Z,10.67
2017-12-29T01:20:37.724Z,5.60
2017-12-29T01:23:05.048Z,4.73
2017-12-29T01:25:32.197Z,11.90
2017-12-29T01:27:58.720Z,9.40
2017-12-29T01:30:25.110Z,9.43
2017-12-29T01:32:51.470Z,6.07
2017-12-29T01:35:17.967Z,5.60
2017-12-29T01:37:44.902Z,18.80
2017-12-29T01:40:11.344Z,8.53
2017-12-29T01:42:37.700Z,11.87
2017-12-29T01:45:04.529Z,11.87
2017-12-29T01:47:43.618Z,9.07
2017-12-29T01:50:11.772Z,17.63
2017-12-29T01:52:38.944Z,4.30
2017-12-29T01:55:06.369Z,11.00
2017-12-29T01:57:32.970Z,14.97
2017-12-29T01:59:59.747Z,12.03
2017-12-29T02:02:26.151Z,11.77
2017-12-29T02:04:52.518Z,5.13
2017-12-29T02:07:19.011Z,10.80
2017-12-29T02:09:46.243Z,9.33
2017-12-29T02:12:13.467Z,12.83
2017-12-29T02:14:40.724Z,14.67
2017-12-29T02:19:57.424Z,6.67
2017-12-29T02:22:23.851Z,10.30
2017-12-29T02:24:50.332Z,11.40
2017-12-29T02:27:16.757Z,5.07
2017-12-29T02:29:43.147Z,9.50
2017-12-29T02:32:10.293Z,20.50
2017-12-29T02:34:36.737Z,5.77
2017-12-29T02:37:03.156Z,19.77
2017-12-29T02:39:29.596Z,9.77
2017-12-29T02:41:55.952Z,9.80
2017-12-29T02:44:22.303Z,9.30
2017-12-29T02:46:48.624Z,13.73
2017-12-29T02:49:15.032Z,10.80
2017-12-29T02:51:41.404Z,14.00
2017-12-29T02:54:08.403Z,11.10
2017-12-29T02:56:34.800Z,8.07
2017-12-29T02:59:01.147Z,13.97
2017-12-29T03:01:27.598Z,7.97
2017-12-29T03:03:54.311Z,14.67
2017-12-29T03:06:20.792Z,15.80
2017-12-29T03:08:47.258Z,6.53
2017-12-29T03:11:13.759Z,10.80
2017-12-29T03:13:40.226Z,9.50
2017-12-29T03:16:07.496Z,8.90
2017-12-29T03:18:34.016Z,14.50
2017-12-29T03:21:04.860Z,12.77
2017-12-29T03:23:33.074Z,12.40
2017-12-29T03:25:59.626Z,13.57
2017-12-29T03:28:26.146Z,10.73
2017-12-29T03:30:52.710Z,12.30
2017-12-29T03:33:20.372Z,10.83
2017-12-29T03:35:47.822Z,12.43
2017-12-29T03:38:14.427Z,9.50
2017-12-29T03:40:40.913Z,17.47
2017-12-29T03:43:07.325Z,11.70
2017-12-29T03:45:33.738Z,21.70
2017-12-29T03:48:00.244Z,9.40
2017-12-29T03:50:26.602Z,11.30
2017-12-29T03:52:52.993Z,8.73
2017-12-29T03:55:19.632Z,10.27
2017-12-29T03:57:46.127Z,14.63
2017-12-29T04:00:12.558Z,13.23
2017-12-29T04:02:39.473Z,19.23
2017-12-29T04:05:05.997Z,9.30
2017-12-29T04:07:32.366Z,19.10
2017-12-29T04:09:58.869Z,7.20
2017-12-29T04:12:25.364Z,19.30
2017-12-29T04:14:51.773Z,17.63
2017-12-29T04:17:18.298Z,14.60
2017-12-29T04:19:44.738Z,8.40
2017-12-29T04:22:11.192Z,9.43
2017-12-29T04:24:37.649Z,17.73
2017-12-29T04:27:04.201Z,7.83
2017-12-29T04:29:31.984Z,15.03
2017-12-29T04:31:58.451Z,8.47
2017-12-29T04:34:24.803Z,18.90
2017-12-29T04:36:51.186Z,9.27
2017-12-29T04:39:18.324Z,14.57
2017-12-29T04:41:44.715Z,10.27
2017-12-29T04:44:11.086Z,14.43
2017-12-29T04:46:37.456Z,17.80
2017-12-29T04:49:09.908Z,11.23
2017-12-29T04:51:37.850Z,8.27
2017-12-29T04:54:04.303Z,9.83
2017-12-29T04:56:30.854Z,9.83
2017-12-29T04:58:57.331Z,16.97
2017-12-29T05:01:23.896Z,6.97
2017-12-29T05:03:50.293Z,6.30
2017-12-29T05:06:17.075Z,11.63
2017-12-29T05:08:44.166Z,10.27
2017-12-29T05:11:10.707Z,9.93
2017-12-29T05:13:37.214Z,10.80
2017-12-29T05:16:03.810Z,7.73
2017-12-29T05:18:30.270Z,5.80
2017-12-29T05:20:56.856Z,8.93
2017-12-29T05:23:24.500Z,13.27
2017-12-29T05:25:51.028Z,10.13
2017-12-29T05:28:17.980Z,20.93
2017-12-29T05:30:44.424Z,8.50
2017-12-29T05:33:10.777Z,15.73
2017-12-29T05:35:37.383Z,12.53
2017-12-29T05:38:03.880Z,6.47
2017-12-29T05:40:30.629Z,9.53
2017-12-29T05:42:57.068Z,6.80
2017-12-29T05:45:23.640Z,12.83
2017-12-29T05:47:50.495Z,5.63
2017-12-29T05:50:16.962Z,16.60
2017-12-29T05:52:44.087Z,10.17
2017-12-29T05:55:10.414Z,8.60
2017-12-29T05:57:37.259Z,15.60
2017-12-29T06:00:04.032Z,9.27
2017-12-29T06:02:30.426Z,4.00
2017-12-29T06:04:56.823Z,6.87
2017-12-29T06:07:23.291Z,14.67
2017-12-29T06:09:50.794Z,10.13
2017-12-29T06:12:17.360Z,5.80
2017-12-29T06:14:43.967Z,6.20
2017-12-29T06:17:11.857Z,9.93
2017-12-29T06:19:38.223Z,6.97
2017-12-29T06:22:05.407Z,8.40
2017-12-29T06:24:32.569Z,9.53
2017-12-29T06:26:59.058Z,3.30
2017-12-29T06:29:25.510Z,6.57
2017-12-29T06:31:51.876Z,6.13
2017-12-29T06:34:18.248Z,9.97
2017-12-29T06:36:44.683Z,8.87
2017-12-29T06:39:11.770Z,6.27
2017-12-29T06:41:39.441Z,6.67
2017-12-29T06:44:06.717Z,8.43
2017-12-29T06:46:34.044Z,4.10
2017-12-29T06:49:00.668Z,7.47
2017-12-29T06:51:27.276Z,10.53
2017-12-29T06:53:53.954Z,7.70
2017-12-29T06:56:20.694Z,10.57
2017-12-29T06:58:48.128Z,4.37
2017-12-29T07:01:14.791Z,15.03
2017-12-29T07:03:41.346Z,3.37
2017-12-29T07:06:07.824Z,5.80
2017-12-29T07:08:34.329Z,9.33
2017-12-29T07:11:00.824Z,8.23
2017-12-29T07:13:27.213Z,11.50
2017-12-29T07:15:53.653Z,5.57
2017-12-29T07:18:20.200Z,8.83
2017-12-29T07:20:46.635Z,6.60
2017-12-29T07:23:13.069Z,9.37
2017-12-29T07:25:39.516Z,8.67
2017-12-29T07:28:05.912Z,8.50
2017-12-29T07:30:32.347Z,9.50
2017-12-29T07:32:58.848Z,8.53
2017-12-29T07:35:25.297Z,3.17
2017-12-29T07:37:51.743Z,5.17
2017-12-29T07:40:18.139Z,8.00
2017-12-29T07:42:44.499Z,10.03
2017-12-29T07:45:11.620Z,9.10
2017-12-29T07:47:40.132Z,6.40
2017-12-29T07:50:06.756Z,4.00
2017-12-29T07:52:33.148Z,6.50
2017-12-29T07:54:59.551Z,8.07
2017-12-29T07:57:25.991Z,6.57
2017-12-29T07:59:52.550Z,5.20
2017-12-29T08:02:20.025Z,8.23
2017-12-29T08:04:46.463Z,12.13
2017-12-29T08:07:12.891Z,10.27
2017-12-29T08:09:39.796Z,5.77
2017-12-29T08:12:06.167Z,8.73
2017-12-29T08:14:33.336Z,5.17
2017-12-29T08:17:05.900Z,8.00
2017-12-29T08:19:32.280Z,13.50
2017-12-29T08:21:58.692Z,10.00
2017-12-29T08:24:25.155Z,16.23
2017-12-29T08:26:51.615Z,3.33
2017-12-29T08:29:17.974Z,6.90
2017-12-29T08:31:44.969Z,9.93
2017-12-29T08:34:12.238Z,6.87
2017-12-29T08:36:38.650Z,10.83
2017-12-29T08:39:05.139Z,7.93
2017-12-29T08:41:32.319Z,7.47
2017-12-29T08:43:59.025Z,5.23
2017-12-29T08:46:25.553Z,14.50
2017-12-29T08:48:51.971Z,11.60
2017-12-29T08:51:18.952Z,8.33
2017-12-29T08:53:45.832Z,12.47
2017-12-29T08:56:13.348Z,9.00
2017-12-29T08:58:39.920Z,6.47
2017-12-29T09:01:06.751Z,11.70
2017-12-29T09:03:33.295Z,10.67
2017-12-29T09:05:59.697Z,13.07
2017-12-29T09:08:27.190Z,18.93
2017-12-29T09:10:54.586Z,7.47
2017-12-29T09:13:21.368Z,7.93
2017-12-29T09:15:47.911Z,6.67
2017-12-29T09:18:15.123Z,11.43
2017-12-29T09:20:41.506Z,7.10
2017-12-29T09:23:07.939Z,7.50
2017-12-29T09:25:34.642Z,5.50
2017-12-29T09:28:01.558Z,13.57
2017-12-29T09:30:28.846Z,10.97
2017-12-29T09:32:55.884Z,3.93
2017-12-29T09:35:22.620Z,10.67
2017-12-29T09:37:49.829Z,7.60
2017-12-29T09:40:16.799Z,5.63
2017-12-29T09:42:43.401Z,5.80
2017-12-29T09:45:10.035Z,9.10
2017-12-29T09:47:37.395Z,13.50
2017-12-29T09:50:04.121Z,9.57
2017-12-29T09:52:30.653Z,13.37
2017-12-29T09:54:57.209Z,15.27
2017-12-29T09:57:23.634Z,13.10
2017-12-29T09:59:51.948Z,8.23
2017-12-29T10:02:18.604Z,16.17
2017-12-29T10:04:45.258Z,10.50
2017-12-29T10:07:11.654Z,13.33
2017-12-29T10:09:38.804Z,6.97
2017-12-29T10:12:05.274Z,12.47
2017-12-29T10:14:31.762Z,11.97
2017-12-29T10:16:58.240Z,13.47
2017-12-29T10:19:24.697Z,11.90
2017-12-29T10:21:51.819Z,10.83
2017-12-29T10:24:18.266Z,12.00
2017-12-29T10:26:44.611Z,14.53
2017-12-29T10:29:11.078Z,17.73
2017-12-29T10:31:38.324Z,10.10
2017-12-29T10:34:05.280Z,13.70
2017-12-29T10:36:32.971Z,8.70
2017-12-29T10:38:59.634Z,11.07
2017-12-29T10:41:26.111Z,12.43
2017-12-29T10:43:52.743Z,13.00
2017-12-29T10:46:19.223Z,9.03
2017-12-29T10:48:45.684Z,14.00
2017-12-29T10:51:12.430Z,8.77
2017-12-29T10:59:38.436Z,14.37
2017-12-29T11:02:04.967Z,12.03
2017-12-29T11:04:32.532Z,11.80
2017-12-29T11:06:58.983Z,15.20
2017-12-29T11:09:25.745Z,14.40
2017-12-29T11:11:52.273Z,16.20
2017-12-29T11:14:18.893Z,17.50
2017-12-29T11:16:45.691Z,23.13
2017-12-29T11:19:12.595Z,17.73
2017-12-29T11:21:39.239Z,15.03
2017-12-29T11:24:06.118Z,15.60
2017-12-29T11:26:32.912Z,23.90
2017-12-29T11:28:59.287Z,26.13
2017-12-29T11:31:26.727Z,21.43
2017-12-29T11:33:53.172Z,17.67
2017-12-29T11:36:20.179Z,11.67
2017-12-29T11:38:46.584Z,23.13
2017-12-29T11:41:14.614Z,17.27
2017-12-29T11:43:41.502Z,22.03
2017-12-29T11:46:08.183Z,33.37
2017-12-29T11:48:34.610Z,21.90
2017-12-29T11:51:01.102Z,16.23
2017-12-29T11:53:28.548Z,17.60
2017-12-29T12:01:59.115Z,15.00
2017-12-29T12:04:25.641Z,12.87
2017-12-29T12:06:52.143Z,26.10
2017-12-29T12:09:18.766Z,13.33
2017-12-29T12:11:50.449Z,13.70
2017-12-29T12:14:33.344Z,18.70
2017-12-29T12:17:01.041Z,20.10
2017-12-29T12:19:27.521Z,12.30
2017-12-29T12:21:53.977Z,19.33
2017-12-29T12:24:20.309Z,14.70
2017-12-29T12:26:46.720Z,17.93
2017-12-29T12:29:13.172Z,8.70
2017-12-29T12:31:39.580Z,29.03
2017-12-29T12:34:05.998Z,15.50
2017-12-29T12:36:32.428Z,15.90
2017-12-29T12:38:58.793Z,10.73
2017-12-29T12:41:25.263Z,12.33
2017-12-29T12:43:51.677Z,22.47
2017-12-29T12:46:18.200Z,19.93
2017-12-29T12:48:44.649Z,14.90
2017-12-29T12:51:12.767Z,15.60
2017-12-29T12:53:39.227Z,20.33
2017-12-29T12:56:05.722Z,18.50
2017-12-29T12:58:33.040Z,18.90
2017-12-29T13:00:59.485Z,10.27
2017-12-29T13:03:26.012Z,34.87
2017-12-29T13:05:52.544Z,21.13
2017-12-29T13:08:19.576Z,19.60
2017-12-29T13:10:45.988Z,15.80
2017-12-29T13:13:12.505Z,14.17
2017-12-29T13:15:39.118Z,17.23
2017-12-29T13:18:05.663Z,16.90
2017-12-29T13:20:32.127Z,18.20
2017-12-29T13:22:59.396Z,31.03
2017-12-29T13:25:26.008Z,27.20
2017-12-29T13:27:53.043Z,18.30
2017-12-29T13:30:19.644Z,18.67
2017-12-29T13:32:46.223Z,27.03
2017-12-29T13:35:13.333Z,20.13
2017-12-29T13:37:39.926Z,22.27
2017-12-29T13:40:06.342Z,19.33
2017-12-29T13:42:32.795Z,24.73
2017-12-29T13:45:00.257Z,15.80
2017-12-29T13:47:26.755Z,16.37
2017-12-29T13:49:54.555Z,28.83
2017-12-29T13:52:22.672Z,20.13
2017-12-29T13:54:49.114Z,25.40
2017-12-29T13:57:15.552Z,20.97
2017-12-29T13:59:41.963Z,15.07
2017-12-29T14:02:08.324Z,23.60
2017-12-29T14:04:35.443Z,22.17
2017-12-29T14:07:01.820Z,18.23
2017-12-29T14:09:29.094Z,23.80
2017-12-29T14:11:55.851Z,13.50
2017-12-29T14:14:22.522Z,16.43
2017-12-29T14:16:49.115Z,21.73
2017-12-29T14:19:15.574Z,19.00
2017-12-29T14:21:42.513Z,12.50
2017-12-29T14:24:09.054Z,25.13
2017-12-29T14:26:35.481Z,19.63
2017-12-29T14:29:01.964Z,20.90
2017-12-29T14:31:28.418Z,24.73
2017-12-29T14:33:54.844Z,20.30
2017-12-29T14:36:22.009Z,19.77
2017-12-29T14:38:48.406Z,21.67
2017-12-29T14:41:14.846Z,17.63
2017-12-29T14:43:42.009Z,23.07
2017-12-29T14:46:08.586Z,22.13
2017-12-29T14:48:35.708Z,20.53
2017-12-29T14:51:02.211Z,15.70
2017-12-29T14:53:28.650Z,22.07
2017-12-29T14:55:55.516Z,29.83
2017-12-29T14:58:22.587Z,30.23
2017-12-29T15:00:49.057Z,18.50
2017-12-29T15:03:15.489Z,19.47
2017-12-29T15:05:41.940Z,21.73
2017-12-29T15:08:08.452Z,25.53
2017-12-29T15:10:35.126Z,21.63
2017-12-29T15:13:01.530Z,19.53
2017-12-29T15:15:29.620Z,29.37
2017-12-29T15:17:56.392Z,31.50
2017-12-29T15:20:23.090Z,26.60
2017-12-29T15:22:50.046Z,20.93
2017-12-29T15:25:16.596Z,26.63
2017-12-29T15:27:44.001Z,23.50
2017-12-29T15:30:10.429Z,17.73
2017-12-29T15:32:36.925Z,31.13
2017-12-29T15:35:03.335Z,20.87
2017-12-29T15:37:29.797Z,28.43
2017-12-29T15:39:56.241Z,31.27
2017-12-29T15:42:22.664Z,18.43
2017-12-29T15:44:49.165Z,20.67
2017-12-29T15:47:15.720Z,22.50
2017-12-29T15:49:42.253Z,18.87
2017-12-29T15:52:08.771Z,19.60
2017-12-29T15:54:35.358Z,23.87
2017-12-29T15:57:01.895Z,23.43
2017-12-29T15:59:28.272Z,19.10
2017-12-29T16:01:55.925Z,27.97
2017-12-29T16:04:22.322Z,19.27
2017-12-29T16:06:48.978Z,26.53
2017-12-29T16:09:15.681Z,19.80
2017-12-29T16:11:42.315Z,17.97
2017-12-29T16:14:08.779Z,22.63
2017-12-29T16:16:36.118Z,27.90
2017-12-29T16:19:02.679Z,22.50
2017-12-29T16:21:29.188Z,17.60
2017-12-29T16:23:55.846Z,20.03
2017-12-29T16:26:22.902Z,18.77
2017-12-29T16:28:49.937Z,22.53
2017-12-29T16:31:17.067Z,20.27
2017-12-29T16:33:44.393Z,19.17
2017-12-29T16:36:11.044Z,17.53
2017-12-29T16:38:37.831Z,22.63
2017-12-29T16:41:04.334Z,26.13
2017-12-29T16:43:31.383Z,15.60
2017-12-29T16:45:57.961Z,22.67
2017-12-29T16:48:26.241Z,18.40
2017-12-29T16:50:53.430Z,26.47
2017-12-29T16:53:20.179Z,16.43
2017-12-29T16:55:48.574Z,19.90
2017-12-29T16:58:15.927Z,19.77
2017-12-29T17:00:42.688Z,23.10
2017-12-29T17:03:09.146Z,28.17
2017-12-29T17:05:36.324Z,25.10
2017-12-29T17:08:03.016Z,21.13
2017-12-29T17:10:30.964Z,22.63
2017-12-29T17:12:57.948Z,27.57
2017-12-29T17:15:25.246Z,19.50
2017-12-29T17:17:51.839Z,33.40
2017-12-29T17:20:19.136Z,25.93
2017-12-29T17:22:45.821Z,23.77
2017-12-29T17:25:12.398Z,35.43
2017-12-29T17:27:38.930Z,40.13
2017-12-29T17:30:05.605Z,26.00
2017-12-29T17:32:32.118Z,17.60
2017-12-29T17:34:58.596Z,21.73
2017-12-29T17:37:26.317Z,23.70
2017-12-29T17:39:52.948Z,24.27
2017-12-29T17:42:20.082Z,21.50
2017-12-29T17:44:46.493Z,22.23
2017-12-29T17:47:13.659Z,23.97
2017-12-29T17:49:40.245Z,20.10
2017-12-29T17:52:06.814Z,22.93
2017-12-29T17:54:33.271Z,19.50
2017-12-29T17:56:59.825Z,23.53
2017-12-29T17:59:26.314Z,31.00
2017-12-29T18:01:52.811Z,31.83
2017-12-29T18:04:19.459Z,22.20
2017-12-29T18:06:46.370Z,24.90
2017-12-29T18:09:13.194Z,32.90
2017-12-29T18:11:40.393Z,33.63
2017-12-29T18:14:07.007Z,37.67
2017-12-29T18:16:33.642Z,41.73
2017-12-29T18:19:00.738Z,38.87
2017-12-29T18:21:27.201Z,39.57
2017-12-29T18:23:53.579Z,42.80
2017-12-29T18:26:20.005Z,29.10
2017-12-29T18:28:46.433Z,58.80
2017-12-29T18:31:12.959Z,38.83
2017-12-29T18:33:40.179Z,42.70
2017-12-29T18:36:06.565Z,42.73
2017-12-29T18:38:32.961Z,44.67
2017-12-29T18:41:00.044Z,32.60
2017-12-29T18:43:27.003Z,37.73
2017-12-29T18:45:53.442Z,44.70
2017-12-29T18:48:20.004Z,52.80
2017-12-29T18:50:47.196Z,43.97
2017-12-29T18:53:14.331Z,49.03
2017-12-29T18:55:40.928Z,54.90
2017-12-29T18:58:07.719Z,42.00
2017-12-29T19:00:34.176Z,43.90
2017-12-29T19:03:01.622Z,29.57
2017-12-29T19:05:28.636Z,28.10
2017-12-29T19:07:55.087Z,28.57
2017-12-29T19:10:21.538Z,21.93
2017-12-29T19:12:48.116Z,23.77
2017-12-29T19:15:14.524Z,24.37
2017-12-29T19:17:40.974Z,21.40
2017-12-29T19:20:07.733Z,14.37
2017-12-29T19:22:34.297Z,14.90
2017-12-29T19:25:01.162Z,16.57
2017-12-29T19:27:28.706Z,15.23
2017-12-29T19:29:56.347Z,18.17
2017-12-29T19:32:22.875Z,20.57
2017-12-29T19:34:50.036Z,22.87
2017-12-29T19:37:17.252Z,29.23
2017-12-29T19:39:43.776Z,14.03
2017-12-29T19:42:10.308Z,14.07
2017-12-29T19:44:37.514Z,16.63
2017-12-29T19:47:04.145Z,11.30
2017-12-29T19:49:30.803Z,14.10
2017-12-29T19:51:57.237Z,11.80
2017-12-29T19:54:23.744Z,14.13
2017-12-29T19:56:50.204Z,15.03
2017-12-29T19:59:17.742Z,10.37
2017-12-29T20:01:44.134Z,6.50
2017-12-29T20:04:10.727Z,13.13
2017-12-29T20:06:37.191Z,12.93
2017-12-29T20:09:04.713Z,9.50
2017-12-29T20:11:31.938Z,13.40
2017-12-29T20:13:58.341Z,11.13
2017-12-29T20:16:25.102Z,11.00
2017-12-29T20:18:51.965Z,11.97
2017-12-29T20:21:18.515Z,8.27
2017-12-29T20:23:45.173Z,7.13
2017-12-29T20:26:11.922Z,12.00
2017-12-29T20:28:39.217Z,6.03
2017-12-29T20:31:05.719Z,18.53
2017-12-29T20:33:32.884Z,9.80
2017-12-29T20:35:59.753Z,10.67
2017-12-29T20:38:26.411Z,8.43
2017-12-29T20:40:53.274Z,8.07
2017-12-29T20:43:20.010Z,6.47
2017-12-29T20:45:46.616Z,8.03
2017-12-29T20:48:13.716Z,10.00
2017-12-29T20:50:40.575Z,5.30
2017-12-29T20:53:07.533Z,11.73
2017-12-29T20:55:34.032Z,15.10
2017-12-29T20:58:00.623Z,8.13
2017-12-29T21:00:27.132Z,20.20
2017-12-29T21:02:54.755Z,7.07
2017-12-29T21:05:21.828Z,7.17
2017-12-29T21:07:48.450Z,8.60
2017-12-29T21:10:14.857Z,11.43
2017-12-29T21:12:41.319Z,11.00
2017-12-29T21:15:08.024Z,6.63
2017-12-29T21:17:34.866Z,8.80
2017-12-29T21:20:02.052Z,8.10
2017-12-29T21:22:28.696Z,7.47
2017-12-29T21:24:55.128Z,12.80
2017-12-29T21:27:21.630Z,7.67
2017-12-29T21:29:48.058Z,11.10
2017-12-29T21:32:15.329Z,8.57
2017-12-29T21:34:41.920Z,6.60
2017-12-29T21:37:08.379Z,7.00
2017-12-29T21:39:35.494Z,9.47
2017-12-29T21:42:01.974Z,13.73
2017-12-29T21:44:28.370Z,10.00
2017-12-29T21:46:54.825Z,7.10
2017-12-29T21:49:21.195Z,7.23
2017-12-29T21:51:47.576Z,4.93
2017-12-29T21:54:13.958Z,9.00
2017-12-29T21:56:40.395Z,6.63
2017-12-29T21:59:07.851Z,9.80
2017-12-29T22:01:35.021Z,7.23
2017-12-29T22:04:01.460Z,8.67
2017-12-29T22:06:27.852Z,7.53
2017-12-29T22:08:54.287Z,5.97
2017-12-29T22:11:20.686Z,9.20
2017-12-29T22:13:47.089Z,11.50
2017-12-29T22:16:13.516Z,11.10
2017-12-29T22:18:39.949Z,10.43
2017-12-29T22:21:06.429Z,6.80
2017-12-29T22:23:33.008Z,7.50
2017-12-29T22:25:59.416Z,10.00
2017-12-29T22:28:25.889Z,15.57
2017-12-29T22:30:52.356Z,10.80
2017-12-29T22:33:18.783Z,6.73
2017-12-29T22:35:46.096Z,10.83
2017-12-29T22:38:12.802Z,16.00
2017-12-29T22:40:39.343Z,6.63
2017-12-29T22:43:05.742Z,11.37
2017-12-29T22:45:32.278Z,14.10
2017-12-29T22:47:58.678Z,6.93
2017-12-29T22:50:25.141Z,10.80
2017-12-29T22:52:51.509Z,13.13
2017-12-29T22:55:17.926Z,11.90
2017-12-29T22:57:44.345Z,6.90
2017-12-29T23:00:11.590Z,8.03
2017-12-29T23:02:38.145Z,11.53
2017-12-29T23:05:04.716Z,7.23
2017-12-29T23:07:31.224Z,8.83
2017-12-29T23:09:58.068Z,9.53
2017-12-29T23:12:24.687Z,7.20
2017-12-29T23:14:51.351Z,13.10
2017-12-29T23:17:17.769Z,5.70
2017-12-29T23:19:44.300Z,13.30
2017-12-29T23:22:10.829Z,7.10
2017-12-29T23:24:37.406Z,8.50
2017-12-29T23:27:03.923Z,10.90
2017-12-29T23:29:31.145Z,7.00
2017-12-29T23:31:58.541Z,5.23
2017-12-29T23:34:25.132Z,11.47
2017-12-29T23:36:52.470Z,9.13
2017-12-29T23:39:18.864Z,16.33
2017-12-29T23:41:45.401Z,6.97
2017-12-29T23:44:11.840Z,9.07
2017-12-29T23:46:38.586Z,6.93
2017-12-29T23:49:05.108Z,9.07
2017-12-29T23:51:31.509Z,8.60
2017-12-29T23:53:57.921Z,8.33
2017-12-29T23:56:24.299Z,6.10
2017-12-29T23:58:50.800Z,10.17
